Time;durP1;ratioP1;P1;durP2;ratioP2;P2;SDS_P1;SDS_P2;PMS_P1;PMS_P2;Temp;Humidity;BMP_temperature;BMP_pressure;BME280_temperature;BME280_humidity;BME280_pressure;Samples;Min_cycle;Max_cycle;Signal;HPM_P1;HPM_P2
2024/02/16 00:00:06;;;;;;;4.1;3;;;;;;;6.94;72.72559;937.1431;;;;
2024/02/16 00:02:32;;;;;;;4.2;2.6;;;;;;;7;72.49707;937.1214;;;;
2024/02/16 00:05:03;;;;;;;4.2;2.8;;;;;;;7.11;71.96191;937.1113;;;;
2024/02/16 00:07:22;;;;;;;4.3;2.5;;;;;;;7.08;71.7627;937.0853;;;;
2024/02/16 00:09:47;;;;;;;4;2.7;;;;;;;7.15;71.50488;937.071;;;;
2024/02/16 00:12:12;;;;;;;4.4;2.8;;;;;;;7.19;71.68066;936.9869;;;;
2024/02/16 00:14:37;;;;;;;3.3;2.8;;;;;;;7.12;71.83887;936.9991;;;;
2024/02/16 00:17:03;;;;;;;4.8;2.9;;;;;;;6.83;72.61621;937.1076;;;;
2024/02/16 00:19:28;;;;;;;4.6;2.5;;;;;;;6.79;72.77832;937.1262;;;;
2024/02/16 00:21:53;;;;;;;5.2;2.8;;;;;;;6.92;72.6416;937.0358;;;;
2024/02/16 00:24:18;;;;;;;3.7;2.7;;;;;;;6.8;73.16504;937.12;;;;
2024/02/16 00:26:45;;;;;;;4.2;2.4;;;;;;;6.77;73.11523;937.1068;;;;
2024/02/16 00:29:08;;;;;;;6.2;2.9;;;;;;;6.65;73.84375;937.0923;;;;
2024/02/16 00:31:33;;;;;;;3.1;2.1;;;;;;;6.66;73.93359;937.1163;;;;
2024/02/16 00:33:58;;;;;;;3.5;2.2;;;;;;;6.69;73.83789;937.0442;;;;
2024/02/16 00:36:23;;;;;;;3.1;2.1;;;;;;;6.7;73.60254;937.0539;;;;
2024/02/16 00:38:48;;;;;;;3;2.1;;;;;;;6.65;73.69434;937.0385;;;;
2024/02/16 00:41:14;;;;;;;2.5;2;;;;;;;6.65;73.54785;936.9799;;;;
2024/02/16 00:43:39;;;;;;;3.5;1.9;;;;;;;6.62;73.62109;936.9634;;;;
2024/02/16 00:46:04;;;;;;;2.8;2;;;;;;;6.68;73.17871;936.9085;;;;
2024/02/16 00:48:30;;;;;;;4.3;1.9;;;;;;;6.6;73.51758;936.8947;;;;
2024/02/16 00:50:55;;;;;;;3.6;1.5;;;;;;;6.66;73.24414;936.889;;;;
2024/02/16 00:53:21;;;;;;;3.4;1.6;;;;;;;6.59;72.9707;936.8683;;;;
2024/02/16 00:55:46;;;;;;;2.7;1.8;;;;;;;6.7;72.99121;936.9052;;;;
2024/02/16 00:58:11;;;;;;;2.8;1.7;;;;;;;6.58;73.46777;936.8602;;;;
2024/02/16 01:00:36;;;;;;;2.9;1.8;;;;;;;6.43;74.12109;936.8995;;;;
2024/02/16 01:03:01;;;;;;;2.9;2;;;;;;;6.46;73.84277;936.9272;;;;
2024/02/16 01:05:27;;;;;;;5.6;3.1;;;;;;;6.42;73.72363;936.8337;;;;
2024/02/16 01:07:52;;;;;;;4.8;3;;;;;;;6.31;73.63574;936.9961;;;;
2024/02/16 01:10:17;;;;;;;5.8;2.6;;;;;;;6.49;72.97656;936.9769;;;;
2024/02/16 01:12:42;;;;;;;3.7;2.1;;;;;;;6.65;72.55078;936.8873;;;;
2024/02/16 01:15:07;;;;;;;3.1;2;;;;;;;6.68;72.37695;936.9253;;;;
2024/02/16 01:17:32;;;;;;;3.4;2;;;;;;;6.59;72.50781;936.9213;;;;
2024/02/16 01:19:58;;;;;;;3.5;2.1;;;;;;;6.7;72.16504;936.9106;;;;
2024/02/16 01:22:22;;;;;;;3.8;2.5;;;;;;;6.56;72.60449;936.9264;;;;
2024/02/16 01:24:47;;;;;;;3.2;2.3;;;;;;;6.6;72.31641;936.8558;;;;
2024/02/16 01:27:12;;;;;;;5.2;2.5;;;;;;;6.58;72.81152;936.8816;;;;
2024/02/16 01:29:38;;;;;;;6.3;2.4;;;;;;;6.39;73.1748;936.8795;;;;
2024/02/16 01:32:03;;;;;;;3.9;2.4;;;;;;;6.4;73.00684;936.8868;;;;
2024/02/16 01:34:30;;;;;;;4.7;2.3;;;;;;;6.29;73.47461;936.8844;;;;
2024/02/16 01:36:53;;;;;;;3.6;2.1;;;;;;;6.47;73.22266;936.8656;;;;
2024/02/16 01:39:18;;;;;;;2.9;2.3;;;;;;;6.56;73.01172;936.8969;;;;
2024/02/16 01:41:43;;;;;;;2.8;2;;;;;;;6.53;73.14258;936.8292;;;;
2024/02/16 01:44:08;;;;;;;3.5;2.2;;;;;;;6.35;73.60938;936.8383;;;;
2024/02/16 01:46:33;;;;;;;3.3;2.3;;;;;;;6.35;73.84668;936.8365;;;;
2024/02/16 01:48:59;;;;;;;5.4;3.8;;;;;;;6.28;73.98145;936.861;;;;
2024/02/16 01:51:24;;;;;;;27.4;25.3;;;;;;;6.33;74.15918;936.7966;;;;
2024/02/16 01:53:49;;;;;;;6;5.4;;;;;;;6.34;74.02441;936.6995;;;;
2024/02/16 01:56:14;;;;;;;5.1;2.4;;;;;;;6.39;73.78516;936.7148;;;;
2024/02/16 01:58:39;;;;;;;2.9;2;;;;;;;6.49;73.47266;936.6818;;;;
2024/02/16 02:01:05;;;;;;;3;2;;;;;;;6.33;74.08008;936.7048;;;;
2024/02/16 02:03:30;;;;;;;2.1;1.7;;;;;;;6.14;74.41016;936.698;;;;
2024/02/16 02:05:56;;;;;;;2.4;1.6;;;;;;;6.14;74.53418;936.7065;;;;
2024/02/16 02:08:20;;;;;;;2.3;1.4;;;;;;;6.26;74.13477;936.6092;;;;
2024/02/16 02:10:45;;;;;;;3.2;1.9;;;;;;;6.22;74.45801;936.6708;;;;
2024/02/16 02:13:10;;;;;;;3.6;1.9;;;;;;;6.14;74.80566;936.6584;;;;
2024/02/16 02:15:35;;;;;;;2.9;1.9;;;;;;;6.11;75.13867;936.6608;;;;
2024/02/16 02:18:00;;;;;;;2.2;1.7;;;;;;;6.16;75.0791;936.5829;;;;
2024/02/16 02:20:25;;;;;;;2.3;1.7;;;;;;;6.17;75.15918;936.5966;;;;
2024/02/16 02:22:50;;;;;;;2.8;1.5;;;;;;;6.28;74.7959;936.605;;;;
2024/02/16 02:25:15;;;;;;;2.4;1.9;;;;;;;6.39;74.22852;936.5988;;;;
2024/02/16 02:27:40;;;;;;;2.6;1.7;;;;;;;6.48;73.6084;936.5053;;;;
2024/02/16 02:30:11;;;;;;;2.4;1.5;;;;;;;6.5;73.63477;936.5349;;;;
2024/02/16 02:32:36;;;;;;;2.9;1.7;;;;;;;6.32;74.38477;936.5031;;;;
2024/02/16 02:35:01;;;;;;;2.3;1.5;;;;;;;6.5;73.56836;936.5128;;;;
2024/02/16 02:37:26;;;;;;;1.6;1.4;;;;;;;6.54;73.48242;936.5461;;;;
2024/02/16 02:39:51;;;;;;;2.2;1.3;;;;;;;6.66;72.9043;936.4786;;;;
2024/02/16 02:42:17;;;;;;;2.5;1.3;;;;;;;6.69;72.0957;936.4745;;;;
2024/02/16 02:44:49;;;;;;;1.8;1.3;;;;;;;6.75;72.5332;936.4899;;;;
2024/02/16 02:47:06;;;;;;;2;1.2;;;;;;;6.69;72.75;936.4973;;;;
2024/02/16 02:49:32;;;;;;;2.5;1.5;;;;;;;6.67;72.9834;936.4796;;;;
2024/02/16 02:51:57;;;;;;;2.3;1.5;;;;;;;6.77;72.86621;936.473;;;;
2024/02/16 02:54:22;;;;;;;2;1.3;;;;;;;6.65;73.50391;936.5037;;;;
2024/02/16 02:56:47;;;;;;;1.5;1.3;;;;;;;6.65;73.58203;936.502;;;;
2024/02/16 02:59:13;;;;;;;3.3;2.2;;;;;;;6.77;73.00195;936.5046;;;;
2024/02/16 03:01:38;;;;;;;4.4;1.7;;;;;;;6.69;73.30469;936.4263;;;;
2024/02/16 03:04:03;;;;;;;3.6;2;;;;;;;6.71;72.70996;936.4677;;;;
2024/02/16 03:06:28;;;;;;;2.3;1.9;;;;;;;6.7;72.95703;936.4455;;;;
2024/02/16 03:08:56;;;;;;;3.1;2.1;;;;;;;6.69;72.86328;936.4317;;;;
2024/02/16 03:11:21;;;;;;;3.1;2;;;;;;;6.61;73.20215;936.4822;;;;
2024/02/16 03:13:46;;;;;;;3.8;2.3;;;;;;;6.62;73.54297;936.4841;;;;
2024/02/16 03:16:11;;;;;;;2.9;2;;;;;;;6.56;73.69043;936.4984;;;;
2024/02/16 03:18:36;;;;;;;2.7;1.7;;;;;;;6.55;73.79102;936.5345;;;;
2024/02/16 03:21:01;;;;;;;1.9;1.6;;;;;;;6.61;73.09863;936.4874;;;;
2024/02/16 03:23:26;;;;;;;2;1.3;;;;;;;6.74;72.6582;936.4835;;;;
2024/02/16 03:25:51;;;;;;;1.9;1.5;;;;;;;6.7;73.35156;936.4422;;;;
2024/02/16 03:28:17;;;;;;;2.4;1.5;;;;;;;6.73;73.44824;936.5179;;;;
2024/02/16 03:30:41;;;;;;;1.8;1.5;;;;;;;6.75;73.48535;936.5081;;;;
2024/02/16 03:33:07;;;;;;;4.8;1.5;;;;;;;6.65;74.06836;936.502;;;;
2024/02/16 03:35:32;;;;;;;2.9;1.7;;;;;;;6.66;74.18262;936.5956;;;;
2024/02/16 03:37:57;;;;;;;1.6;1.4;;;;;;;6.61;74.36719;936.5519;;;;
2024/02/16 03:40:22;;;;;;;2;1.4;;;;;;;6.61;74.48047;936.4713;;;;
2024/02/16 03:42:47;;;;;;;1.6;1.2;;;;;;;6.57;74.91406;936.6227;;;;
2024/02/16 03:45:13;;;;;;;2.6;1.6;;;;;;;6.62;74.73145;936.617;;;;
2024/02/16 03:47:39;;;;;;;1.8;1.4;;;;;;;6.69;74.56152;936.601;;;;
2024/02/16 03:50:03;;;;;;;1.9;1.5;;;;;;;6.84;73.72754;936.6244;;;;
2024/02/16 03:52:29;;;;;;;3.4;1.7;;;;;;;6.8;73.95898;936.6572;;;;
2024/02/16 03:54:54;;;;;;;1.7;1.4;;;;;;;6.88;73.69922;936.6994;;;;
2024/02/16 03:57:19;;;;;;;1.7;1.3;;;;;;;6.78;73.92188;936.6987;;;;
2024/02/16 03:59:44;;;;;;;1.6;1.4;;;;;;;6.85;73.49121;936.7297;;;;
2024/02/16 04:02:29;;;;;;;3.9;1.2;;;;;;;6.94;72.80469;936.7134;;;;
2024/02/16 04:04:54;;;;;;;1.8;1;;;;;;;7.2;71.09277;936.7473;;;;
2024/02/16 04:07:19;;;;;;;1.3;1;;;;;;;7.21;70.55078;936.7557;;;;
2024/02/16 04:09:44;;;;;;;1.2;1.1;;;;;;;7.25;70.28613;936.8159;;;;
2024/02/16 04:12:10;;;;;;;1.1;0.9;;;;;;;7.35;69.7002;936.782;;;;
2024/02/16 04:14:35;;;;;;;1.5;1.1;;;;;;;7.29;69.83887;936.838;;;;
2024/02/16 04:17:00;;;;;;;1.1;1;;;;;;;7.38;68.99219;936.8287;;;;
2024/02/16 04:19:25;;;;;;;2;1.2;;;;;;;7.35;69.8252;936.8557;;;;
2024/02/16 04:21:50;;;;;;;2.9;1.3;;;;;;;7.32;70.8877;936.8063;;;;
2024/02/16 04:24:15;;;;;;;1.3;1.2;;;;;;;7.28;71.69434;936.8244;;;;
2024/02/16 04:26:40;;;;;;;2.1;1.2;;;;;;;7.12;72.69922;936.8828;;;;
2024/02/16 04:29:06;;;;;;;2.3;1.3;;;;;;;7.05;72.9707;936.8979;;;;
2024/02/16 04:31:31;;;;;;;3.2;1.3;;;;;;;6.99;73.23242;936.8885;;;;
2024/02/16 04:33:56;;;;;;;2.1;1.1;;;;;;;7.09;72.75195;936.9192;;;;
2024/02/16 04:36:21;;;;;;;1.8;1.1;;;;;;;7.1;72.72852;936.9266;;;;
2024/02/16 04:38:46;;;;;;;2.1;1.4;;;;;;;7.07;72.81445;936.9269;;;;
2024/02/16 04:41:15;;;;;;;1.7;1.3;;;;;;;6.97;73.31934;936.9387;;;;
2024/02/16 04:43:39;;;;;;;2.4;1.4;;;;;;;6.97;73.44336;936.8391;;;;
2024/02/16 04:46:04;;;;;;;2.2;1.5;;;;;;;6.89;73.73633;936.8808;;;;
2024/02/16 04:48:31;;;;;;;2;1.4;;;;;;;6.92;73.51465;936.8405;;;;
2024/02/16 04:50:55;;;;;;;3.3;1.9;;;;;;;6.87;73.58496;936.9138;;;;
2024/02/16 04:53:20;;;;;;;1.7;1.4;;;;;;;6.94;73.34863;936.8384;;;;
2024/02/16 04:55:45;;;;;;;3;1.4;;;;;;;6.91;73.51367;936.8116;;;;
2024/02/16 04:58:10;;;;;;;2.4;1.6;;;;;;;6.86;73.56055;936.8502;;;;
2024/02/16 05:00:35;;;;;;;2.6;1.3;;;;;;;6.86;73.51563;936.8865;;;;
2024/02/16 05:03:00;;;;;;;2.1;1.3;;;;;;;6.82;74.04004;936.885;;;;
2024/02/16 05:05:26;;;;;;;2.3;1.5;;;;;;;6.74;74.47949;936.9849;;;;
2024/02/16 05:07:51;;;;;;;2.1;1.6;;;;;;;6.68;74.75293;936.9339;;;;
2024/02/16 05:10:15;;;;;;;1.8;1.7;;;;;;;6.69;74.99121;936.7964;;;;
2024/02/16 05:12:41;;;;;;;3.4;2.1;;;;;;;6.67;75.05762;936.8586;;;;
2024/02/16 05:15:05;;;;;;;3.6;2.1;;;;;;;6.77;74.6543;936.863;;;;
2024/02/16 05:17:30;;;;;;;2.6;1.7;;;;;;;6.65;75.03125;936.9294;;;;
2024/02/16 05:19:56;;;;;;;2.3;1.7;;;;;;;6.6;74.91992;936.8766;;;;
2024/02/16 05:22:21;;;;;;;3.7;1.9;;;;;;;6.59;74.92871;936.9221;;;;
2024/02/16 05:24:46;;;;;;;3.3;1.4;;;;;;;6.6;74.79395;936.8441;;;;
2024/02/16 05:27:11;;;;;;;5.4;2.1;;;;;;;6.55;74.96875;936.8803;;;;
2024/02/16 05:29:36;;;;;;;4.2;2.2;;;;;;;6.48;75.31641;936.8716;;;;
2024/02/16 05:32:01;;;;;;;3.7;2.1;;;;;;;6.46;75.29102;936.8663;;;;
2024/02/16 05:34:26;;;;;;;5.4;2.5;;;;;;;6.56;74.95801;936.8709;;;;
2024/02/16 05:36:51;;;;;;;3.8;2.5;;;;;;;6.52;74.83789;936.8455;;;;
2024/02/16 05:39:26;;;;;;;5.2;3.5;;;;;;;6.43;75.36523;936.8331;;;;
2024/02/16 05:41:41;;;;;;;5.8;5.1;;;;;;;6.44;75.43359;936.7353;;;;
2024/02/16 05:44:09;;;;;;;8.4;4.3;;;;;;;6.39;75.71875;936.8217;;;;
2024/02/16 05:46:32;;;;;;;6.9;4.2;;;;;;;6.35;76.00684;936.7908;;;;
2024/02/16 05:48:57;;;;;;;7.2;4.2;;;;;;;6.33;76.08105;936.8377;;;;
2024/02/16 05:51:22;;;;;;;10.6;5.1;;;;;;;6.4;75.83398;936.8521;;;;
2024/02/16 05:53:47;;;;;;;14.1;7.9;;;;;;;6.4;75.83594;936.86;;;;
2024/02/16 05:56:13;;;;;;;23.2;12.2;;;;;;;6.35;76.00684;936.8453;;;;
2024/02/16 05:58:37;;;;;;;26.3;12.9;;;;;;;6.35;75.90332;936.8231;;;;
2024/02/16 06:01:03;;;;;;;20.9;11;;;;;;;6.36;75.68066;936.8645;;;;
2024/02/16 06:03:28;;;;;;;11.9;6.9;;;;;;;6.36;75.68066;936.9358;;;;
2024/02/16 06:05:53;;;;;;;10.7;6.3;;;;;;;6.28;76.03906;936.96;;;;
2024/02/16 06:08:19;;;;;;;8.9;5;;;;;;;6.4;75.38184;936.9089;;;;
2024/02/16 06:10:44;;;;;;;7.5;4.6;;;;;;;6.37;75.58984;936.9817;;;;
2024/02/16 06:13:08;;;;;;;7.7;4.9;;;;;;;6.33;75.70801;936.9611;;;;
2024/02/16 06:15:34;;;;;;;5.7;3.9;;;;;;;6.38;75.58203;937.0278;;;;
2024/02/16 06:17:59;;;;;;;5.3;3.3;;;;;;;6.39;75.66309;937.0392;;;;
2024/02/16 06:20:24;;;;;;;7.1;3.5;;;;;;;6.3;76.12305;937.1083;;;;
2024/02/16 06:22:50;;;;;;;6.7;3.7;;;;;;;6.31;76.24707;937.0999;;;;
2024/02/16 06:25:15;;;;;;;7.9;4;;;;;;;6.28;76.46875;937.1481;;;;
2024/02/16 06:27:40;;;;;;;6;3.4;;;;;;;6.24;76.51855;937.1046;;;;
2024/02/16 06:30:07;;;;;;;5.6;3.2;;;;;;;6.28;76.21973;937.133;;;;
2024/02/16 06:32:31;;;;;;;9.5;3.9;;;;;;;6.28;76.03906;937.1125;;;;
2024/02/16 06:34:55;;;;;;;7.3;4;;;;;;;6.47;75.56543;937.16;;;;
2024/02/16 06:37:20;;;;;;;6.4;3.8;;;;;;;6.45;75.58301;937.1896;;;;
2024/02/16 06:39:45;;;;;;;5.8;3.8;;;;;;;6.43;75.68164;937.1923;;;;
2024/02/16 06:42:12;;;;;;;7.5;5;;;;;;;6.51;74.9707;937.217;;;;
2024/02/16 06:44:35;;;;;;;7.9;5.2;;;;;;;6.48;75.19238;937.2313;;;;
2024/02/16 06:47:01;;;;;;;6.2;4.8;;;;;;;6.37;75.50293;937.2863;;;;
2024/02/16 06:49:26;;;;;;;7.1;4.5;;;;;;;6.36;75.63477;937.2957;;;;
2024/02/16 06:51:51;;;;;;;10.5;6.9;;;;;;;6.48;75.24902;937.3279;;;;
2024/02/16 06:54:16;;;;;;;11.3;7.3;;;;;;;6.51;75.26465;937.3617;;;;
2024/02/16 06:56:41;;;;;;;6.9;4;;;;;;;6.45;75.5498;937.3209;;;;
2024/02/16 06:59:06;;;;;;;6.9;3.8;;;;;;;6.57;75.47949;937.3923;;;;
2024/02/16 07:01:32;;;;;;;4.9;3.4;;;;;;;6.73;74.75977;937.4136;;;;
2024/02/16 07:03:57;;;;;;;4.7;2.7;;;;;;;7.2;73.64258;937.4916;;;;
2024/02/16 07:06:22;;;;;;;4.8;3.2;;;;;;;7.98;70.71289;937.4689;;;;
2024/02/16 07:08:47;;;;;;;7.5;4.2;;;;;;;8.45;68.76563;937.4883;;;;
2024/02/16 07:11:13;;;;;;;8.9;4.2;;;;;;;8.91;66.9834;937.5425;;;;
2024/02/16 07:13:37;;;;;;;8.8;4.5;;;;;;;9.36;65.58691;937.6016;;;;
2024/02/16 07:16:03;;;;;;;6.5;5;;;;;;;9.86;64.05566;937.5743;;;;
2024/02/16 07:18:27;;;;;;;10.4;6.2;;;;;;;10.39;62.45605;937.6225;;;;
2024/02/16 07:20:52;;;;;;;12.2;7.8;;;;;;;10.67;60.85156;937.6509;;;;
2024/02/16 07:23:18;;;;;;;17.3;8.9;;;;;;;10.81;60.60938;937.6583;;;;
2024/02/16 07:25:43;;;;;;;12.9;8.4;;;;;;;11.05;59.67188;937.7076;;;;
2024/02/16 07:28:08;;;;;;;14;7.9;;;;;;;11.48;58.64355;937.697;;;;
2024/02/16 07:30:33;;;;;;;11.5;7.4;;;;;;;11.59;58.46289;937.6968;;;;
2024/02/16 07:32:58;;;;;;;12.7;7.3;;;;;;;12.06;56.91113;937.7115;;;;
2024/02/16 07:35:24;;;;;;;11.8;6.9;;;;;;;12.42;56.52246;937.6833;;;;
2024/02/16 07:37:51;;;;;;;10.2;6.1;;;;;;;12.77;55.43262;937.7238;;;;
2024/02/16 07:40:14;;;;;;;10.1;5.3;;;;;;;12.95;55.07617;937.7241;;;;
2024/02/16 07:42:39;;;;;;;10;5.1;;;;;;;13;54.42871;937.7033;;;;
2024/02/16 07:45:04;;;;;;;9.5;4.7;;;;;;;13.13;54.52539;937.7514;;;;
2024/02/16 07:47:31;;;;;;;12.3;4.2;;;;;;;13.44;53.34473;937.6909;;;;
2024/02/16 07:49:54;;;;;;;6.3;3.4;;;;;;;13.46;52.18652;937.8388;;;;
2024/02/16 07:52:19;;;;;;;4.7;2.2;;;;;;;13.73;50.04492;937.8326;;;;
2024/02/16 07:54:45;;;;;;;2.9;2.4;;;;;;;13.81;49.88184;937.8669;;;;
2024/02/16 07:57:10;;;;;;;3.9;2.5;;;;;;;14.1;50.77832;937.9286;;;;
2024/02/16 07:59:35;;;;;;;6.7;2.2;;;;;;;14.45;48.67578;937.8499;;;;
2024/02/16 08:02:00;;;;;;;4.9;2.4;;;;;;;14.85;48.46777;937.8614;;;;
2024/02/16 08:04:25;;;;;;;2.8;2.1;;;;;;;15.11;48;937.8002;;;;
2024/02/16 08:06:50;;;;;;;3;1.8;;;;;;;15.27;47.2793;937.8552;;;;
2024/02/16 08:09:15;;;;;;;2.6;1.5;;;;;;;15.46;47.06738;937.8376;;;;
2024/02/16 08:11:40;;;;;;;1.6;1.4;;;;;;;15.68;45.9248;937.8423;;;;
2024/02/16 08:14:05;;;;;;;2.8;1.5;;;;;;;15.98;45.79492;937.8784;;;;
2024/02/16 08:16:31;;;;;;;4;1.5;;;;;;;16;44.79004;937.9057;;;;
2024/02/16 08:18:55;;;;;;;4;1.7;;;;;;;16.17;44.86523;937.9103;;;;
2024/02/16 08:21:21;;;;;;;2.8;1.5;;;;;;;16.52;43.69824;937.9102;;;;
2024/02/16 08:23:46;;;;;;;5.4;1.4;;;;;;;16.3;43.2832;937.912;;;;
2024/02/16 08:26:11;;;;;;;2.5;1.5;;;;;;;16.75;42.97949;937.8786;;;;
2024/02/16 08:28:36;;;;;;;4.2;2.1;;;;;;;16.77;43.43359;937.8934;;;;
2024/02/16 08:31:01;;;;;;;5.7;2.4;;;;;;;16.7;43.50781;937.848;;;;
2024/02/16 08:33:26;;;;;;;4;2.4;;;;;;;16.73;43.83398;937.8506;;;;
2024/02/16 08:35:52;;;;;;;5.7;2.9;;;;;;;16.69;43.7959;937.8625;;;;
2024/02/16 08:38:17;;;;;;;6.7;2.8;;;;;;;16.7;44.16699;937.8945;;;;
2024/02/16 08:40:42;;;;;;;6.7;3.7;;;;;;;17.18;43.96094;937.8901;;;;
2024/02/16 08:43:07;;;;;;;6.2;3;;;;;;;17.4;43.08887;937.8198;;;;
2024/02/16 08:45:32;;;;;;;4.8;2.8;;;;;;;17.59;42.44629;937.9681;;;;
2024/02/16 08:48:00;;;;;;;7.1;3.2;;;;;;;17.83;41.87793;937.9364;;;;
2024/02/16 08:50:23;;;;;;;5.4;3.1;;;;;;;18.27;41.3623;937.9258;;;;
2024/02/16 08:52:47;;;;;;;8.9;5;;;;;;;18.33;40.82129;937.9196;;;;
2024/02/16 08:55:12;;;;;;;9.2;4.6;;;;;;;18.3;40.85352;937.9309;;;;
2024/02/16 08:57:38;;;;;;;9.7;6;;;;;;;18.44;40.77344;937.8805;;;;
2024/02/16 09:00:03;;;;;;;7.9;4.7;;;;;;;18.71;39.69238;937.926;;;;
2024/02/16 09:02:28;;;;;;;7;3;;;;;;;18.7;39.61133;937.89;;;;
2024/02/16 09:04:53;;;;;;;3.3;2.3;;;;;;;19.02;39.17383;937.8694;;;;
2024/02/16 09:07:18;;;;;;;4.3;2.1;;;;;;;19.11;39.21777;937.843;;;;
2024/02/16 09:09:43;;;;;;;3.2;1.8;;;;;;;19.29;38.37109;937.8381;;;;
2024/02/16 09:12:08;;;;;;;2.3;1.6;;;;;;;19.64;36.7334;937.9208;;;;
2024/02/16 09:14:33;;;;;;;2.3;1.3;;;;;;;19.6;36.76563;937.8624;;;;
2024/02/16 09:16:59;;;;;;;2.8;1.5;;;;;;;19.61;37.61719;937.892;;;;
2024/02/16 09:19:24;;;;;;;3.1;1.6;;;;;;;19.78;37.48047;937.8727;;;;
2024/02/16 09:21:49;;;;;;;1.7;1.3;;;;;;;20.14;36.49512;937.8269;;;;
2024/02/16 09:24:17;;;;;;;1.9;1.2;;;;;;;20.26;36.12012;937.8295;;;;
2024/02/16 09:26:39;;;;;;;2.6;1.3;;;;;;;20.09;37.54102;937.8259;;;;
2024/02/16 09:29:04;;;;;;;3.2;1.4;;;;;;;20.26;36.33105;937.8051;;;;
2024/02/16 09:31:29;;;;;;;3.7;1.6;;;;;;;20.14;35.36328;937.8018;;;;
2024/02/16 09:33:54;;;;;;;2;1.2;;;;;;;20.04;35.91504;937.7949;;;;
2024/02/16 09:36:20;;;;;;;3.9;1;;;;;;;20.21;36.03516;937.7344;;;;
2024/02/16 09:38:45;;;;;;;1.9;0.8;;;;;;;20.21;35.89453;937.7206;;;;
2024/02/16 09:41:10;;;;;;;1.8;1;;;;;;;20.24;35.24316;937.6504;;;;
2024/02/16 09:43:35;;;;;;;1.8;0.7;;;;;;;20.72;35.47949;937.7076;;;;
2024/02/16 09:46:00;;;;;;;0.9;0.8;;;;;;;20.5;35.3457;937.6911;;;;
2024/02/16 09:48:26;;;;;;;2.1;0.7;;;;;;;20.54;34.89258;937.6205;;;;
2024/02/16 09:50:50;;;;;;;0.8;0.8;;;;;;;20.74;34.57031;937.6753;;;;
2024/02/16 09:53:15;;;;;;;1.4;0.8;;;;;;;20.86;33.86621;937.6509;;;;
2024/02/16 09:55:40;;;;;;;0.9;0.7;;;;;;;20.88;34.1123;937.7046;;;;
2024/02/16 09:58:06;;;;;;;1;0.7;;;;;;;20.86;34.68457;937.676;;;;
2024/02/16 10:00:30;;;;;;;0.8;0.6;;;;;;;20.97;33.75781;937.6498;;;;
2024/02/16 10:02:55;;;;;;;0.6;0.6;;;;;;;20.83;33.32617;937.655;;;;
2024/02/16 10:05:21;;;;;;;1.8;0.8;;;;;;;20.95;34.41113;937.6279;;;;
2024/02/16 10:07:46;;;;;;;0.8;0.6;;;;;;;21.02;31.58691;937.6053;;;;
2024/02/16 10:10:11;;;;;;;1.9;0.6;;;;;;;20.95;33.66309;937.6674;;;;
2024/02/16 10:12:36;;;;;;;2.1;0.9;;;;;;;20.98;31.67676;937.6188;;;;
2024/02/16 10:15:04;;;;;;;2.3;0.6;;;;;;;21.06;31.7998;937.6342;;;;
2024/02/16 10:17:26;;;;;;;0.7;0.6;;;;;;;20.88;33.46973;937.6237;;;;
2024/02/16 10:19:51;;;;;;;0.6;0.6;;;;;;;21.11;32.4707;937.5452;;;;
2024/02/16 10:22:17;;;;;;;1;0.5;;;;;;;21.38;32.66504;937.55;;;;
2024/02/16 10:24:42;;;;;;;1.4;0.7;;;;;;;21.59;32.80957;937.5837;;;;
2024/02/16 10:27:08;;;;;;;1.7;0.6;;;;;;;21.78;32.30762;937.6124;;;;
2024/02/16 10:29:32;;;;;;;1.4;0.7;;;;;;;21.9;31.36719;937.5405;;;;
2024/02/16 10:31:57;;;;;;;0.6;0.6;;;;;;;22.11;32.07422;937.5681;;;;
2024/02/16 10:34:22;;;;;;;0.6;0.6;;;;;;;22.53;30.3916;937.5485;;;;
2024/02/16 10:36:48;;;;;;;1.2;0.9;;;;;;;22.45;30.64453;937.5764;;;;
2024/02/16 10:39:13;;;;;;;0.9;0.7;;;;;;;22.91;30.33594;937.5555;;;;
2024/02/16 10:41:38;;;;;;;1.4;1;;;;;;;23.01;31.25879;937.5494;;;;
2024/02/16 10:44:03;;;;;;;0.7;0.6;;;;;;;23.25;29.42969;937.5225;;;;
2024/02/16 10:46:28;;;;;;;3;1.2;;;;;;;23.48;29.10352;937.4645;;;;
2024/02/16 10:48:53;;;;;;;2.6;1.1;;;;;;;23.25;28.37207;937.4867;;;;
2024/02/16 10:51:19;;;;;;;3;0.9;;;;;;;23.69;28.7998;937.5008;;;;
2024/02/16 10:53:43;;;;;;;0.9;0.8;;;;;;;23.91;28.50879;937.4843;;;;
2024/02/16 10:56:08;;;;;;;1.3;1.2;;;;;;;23.77;28.02832;937.4659;;;;
2024/02/16 10:58:34;;;;;;;3.2;1.1;;;;;;;24.09;28.60254;937.401;;;;
2024/02/16 11:00:59;;;;;;;2.6;1.2;;;;;;;24.44;28.02344;937.387;;;;
2024/02/16 11:03:26;;;;;;;3;1.7;;;;;;;24.14;28.52344;937.3469;;;;
2024/02/16 11:05:50;;;;;;;2.6;1.5;;;;;;;24.12;28.65137;937.3459;;;;
2024/02/16 11:08:15;;;;;;;1.9;1.2;;;;;;;24.47;27.3418;937.2847;;;;
2024/02/16 11:10:40;;;;;;;3.6;1.2;;;;;;;24.38;27.99609;937.2286;;;;
2024/02/16 11:13:06;;;;;;;2.1;1.1;;;;;;;24.59;27.29102;937.2452;;;;
2024/02/16 11:15:31;;;;;;;1.2;1.1;;;;;;;24.31;28.55762;937.2242;;;;
2024/02/16 11:17:57;;;;;;;1.4;0.9;;;;;;;24.3;27.28418;937.1403;;;;
2024/02/16 11:20:21;;;;;;;0.9;0.8;;;;;;;24.41;26.94922;937.1561;;;;
2024/02/16 11:22:46;;;;;;;1.3;0.9;;;;;;;24.26;27.27051;937.1131;;;;
2024/02/16 11:25:11;;;;;;;1;0.9;;;;;;;24.22;26.78418;937.106;;;;
2024/02/16 11:27:36;;;;;;;1.5;0.9;;;;;;;24.07;27.54199;937.0586;;;;
2024/02/16 11:30:02;;;;;;;1;0.9;;;;;;;24.07;27.17676;937.1091;;;;
2024/02/16 11:32:26;;;;;;;0.8;0.8;;;;;;;23.7;27.57715;937.0836;;;;
2024/02/16 11:34:51;;;;;;;1.1;0.8;;;;;;;23.63;28.04297;937.0288;;;;
2024/02/16 11:37:17;;;;;;;1.2;0.7;;;;;;;23.56;28.27441;937.0239;;;;
2024/02/16 11:39:44;;;;;;;1.1;0.9;;;;;;;23.4;28.47559;937.0618;;;;
2024/02/16 11:42:07;;;;;;;1.5;0.7;;;;;;;23.17;28.96582;937.0087;;;;
2024/02/16 11:44:32;;;;;;;0.7;0.6;;;;;;;22.85;29.70801;937.0117;;;;
2024/02/16 11:46:57;;;;;;;1;0.6;;;;;;;22.84;29.4375;937.0251;;;;
2024/02/16 11:49:22;;;;;;;0.8;0.6;;;;;;;22.7;29.52344;937.0323;;;;
2024/02/16 11:51:47;;;;;;;2.2;0.7;;;;;;;22.54;30.79102;936.9849;;;;
2024/02/16 11:54:13;;;;;;;0.9;0.6;;;;;;;22.3;31.06738;937.0259;;;;
2024/02/16 11:56:39;;;;;;;0.6;0.5;;;;;;;22.08;29.98535;937.0398;;;;
2024/02/16 11:59:03;;;;;;;0.4;0.4;;;;;;;21.79;29.12305;936.9991;;;;
2024/02/16 12:01:28;;;;;;;0.5;0.5;;;;;;;21.68;30.62598;937.0664;;;;
2024/02/16 12:03:53;;;;;;;0.6;0.5;;;;;;;21.4;31.00488;937.055;;;;
2024/02/16 12:06:18;;;;;;;0.5;0.5;;;;;;;21.31;31.66504;937.0388;;;;
2024/02/16 12:08:44;;;;;;;0.5;0.5;;;;;;;21.06;31.33105;937.0474;;;;
2024/02/16 12:11:08;;;;;;;0.9;0.6;;;;;;;20.93;31.81348;937.0344;;;;
2024/02/16 12:13:34;;;;;;;0.5;0.4;;;;;;;21.02;31.89063;936.956;;;;
2024/02/16 12:15:58;;;;;;;0.4;0.4;;;;;;;20.87;31.80957;936.9277;;;;
2024/02/16 12:18:23;;;;;;;1;0.7;;;;;;;20.72;31.9502;936.9914;;;;
2024/02/16 12:20:49;;;;;;;0.5;0.5;;;;;;;20.66;32.78711;936.931;;;;
2024/02/16 12:23:14;;;;;;;0.8;0.5;;;;;;;20.23;32.26563;936.8842;;;;
2024/02/16 12:25:39;;;;;;;1.7;0.7;;;;;;;20.14;33.75293;936.9487;;;;
2024/02/16 12:28:05;;;;;;;0.7;0.5;;;;;;;20.19;34.64453;936.9036;;;;
2024/02/16 12:30:30;;;;;;;2;0.5;;;;;;;19.96;34.71875;936.9523;;;;
2024/02/16 12:32:55;;;;;;;1.2;0.6;;;;;;;19.96;34.66113;936.9334;;;;
2024/02/16 12:35:20;;;;;;;1.1;0.6;;;;;;;19.53;35.80469;936.9051;;;;
2024/02/16 12:37:45;;;;;;;0.8;0.7;;;;;;;19.29;36.87988;936.9274;;;;
2024/02/16 12:40:10;;;;;;;1.1;0.5;;;;;;;19.23;37.58594;936.937;;;;
2024/02/16 12:42:35;;;;;;;0.8;0.7;;;;;;;19.05;38.46582;936.9302;;;;
2024/02/16 12:45:01;;;;;;;1.5;0.7;;;;;;;19.22;39.73926;936.967;;;;
2024/02/16 12:47:26;;;;;;;2.3;0.7;;;;;;;19.36;39.0293;936.8611;;;;
2024/02/16 12:49:51;;;;;;;1.1;0.7;;;;;;;19.42;40.25781;936.8878;;;;
2024/02/16 12:52:17;;;;;;;2.3;0.8;;;;;;;19.47;40.65918;936.889;;;;
2024/02/16 12:54:41;;;;;;;1.3;0.9;;;;;;;19.57;40.80859;936.9069;;;;
2024/02/16 12:57:06;;;;;;;1.5;0.7;;;;;;;19.33;40.17969;936.8763;;;;
2024/02/16 12:59:31;;;;;;;1;0.8;;;;;;;19.3;40.93359;936.882;;;;
2024/02/16 13:01:56;;;;;;;2.5;1;;;;;;;19.41;40.34961;936.9179;;;;
2024/02/16 13:04:22;;;;;;;1.1;0.8;;;;;;;19.17;40.63086;936.8166;;;;
2024/02/16 13:06:47;;;;;;;1.3;1;;;;;;;19.19;40.78516;936.7682;;;;
2024/02/16 13:09:12;;;;;;;0.9;0.8;;;;;;;19.31;40.63281;936.8777;;;;
2024/02/16 13:11:37;;;;;;;0.9;0.8;;;;;;;19.32;42.07813;936.8315;;;;
2024/02/16 13:14:02;;;;;;;1.3;0.9;;;;;;;19.43;41.75;936.8303;;;;
2024/02/16 13:16:27;;;;;;;2.1;0.9;;;;;;;19.54;40.78125;936.793;;;;
2024/02/16 13:18:53;;;;;;;1;0.8;;;;;;;19.47;40.92676;936.8325;;;;
2024/02/16 13:21:18;;;;;;;2.3;0.7;;;;;;;19.34;41.38184;936.83;;;;
2024/02/16 13:23:43;;;;;;;1.9;0.9;;;;;;;19.27;41.52637;936.7722;;;;
2024/02/16 13:26:08;;;;;;;1.2;0.8;;;;;;;19.18;42.2627;936.8185;;;;
2024/02/16 13:28:33;;;;;;;3.3;0.8;;;;;;;19.33;41.16992;936.8214;;;;
2024/02/16 13:30:58;;;;;;;0.9;0.6;;;;;;;19.13;41.94336;936.8142;;;;
2024/02/16 13:33:23;;;;;;;1.7;0.8;;;;;;;19.19;42.57813;936.8264;;;;
2024/02/16 13:35:49;;;;;;;1.8;1;;;;;;;19.25;42.06055;936.817;;;;
2024/02/16 13:38:14;;;;;;;1.1;0.9;;;;;;;18.8;42.78418;936.8203;;;;
2024/02/16 13:40:39;;;;;;;1.7;0.9;;;;;;;18.8;43.92578;936.8792;;;;
2024/02/16 13:43:04;;;;;;;0.9;0.8;;;;;;;18.94;43.32227;936.9302;;;;
2024/02/16 13:45:29;;;;;;;2;0.9;;;;;;;19;43.24707;936.8543;;;;
2024/02/16 13:47:54;;;;;;;0.9;0.7;;;;;;;18.78;43.39941;936.9427;;;;
2024/02/16 13:50:20;;;;;;;1.7;1;;;;;;;18.88;43.73438;936.9817;;;;
2024/02/16 13:52:44;;;;;;;1.5;1.2;;;;;;;18.96;43.68555;936.9821;;;;
2024/02/16 13:55:10;;;;;;;2.1;0.8;;;;;;;18.86;43.37207;937.0339;;;;
2024/02/16 13:57:35;;;;;;;1.2;0.8;;;;;;;18.77;43.85254;937.0533;;;;
2024/02/16 14:00:00;;;;;;;1.8;0.9;;;;;;;18.78;44.55176;937.133;;;;
2024/02/16 14:02:25;;;;;;;0.9;0.8;;;;;;;18.75;44.25684;937.1484;;;;
2024/02/16 14:04:52;;;;;;;2.8;1;;;;;;;18.69;44.19336;937.1819;;;;
2024/02/16 14:07:16;;;;;;;1.5;1;;;;;;;18.72;44.39453;937.1513;;;;
2024/02/16 14:09:41;;;;;;;2;1;;;;;;;18.62;44.51172;937.3;;;;
2024/02/16 14:12:06;;;;;;;2.2;1.2;;;;;;;18.67;44.58691;937.2656;;;;
2024/02/16 14:14:31;;;;;;;4.3;1.3;;;;;;;18.65;44.57324;937.2175;;;;
2024/02/16 14:16:56;;;;;;;2.3;1.1;;;;;;;18.68;45.08789;937.25;;;;
2024/02/16 14:19:22;;;;;;;2.5;1.2;;;;;;;18.62;45.26855;937.3422;;;;